createdAt,value
2022-10-23T00:00:00.628Z,-3.90
2022-10-23T00:01:00.637Z,-3.93
2022-10-23T00:02:00.742Z,-3.95
2022-10-23T00:03:00.761Z,-3.94
2022-10-23T00:04:00.716Z,-3.94
2022-10-23T00:05:00.691Z,-3.95
2022-10-23T00:06:00.748Z,-3.97
2022-10-23T00:07:00.723Z,-3.97
2022-10-23T00:08:00.927Z,-3.97
2022-10-23T00:09:00.850Z,-3.98
2022-10-23T00:10:00.794Z,-3.99
2022-10-23T00:11:00.796Z,-3.98
2022-10-23T00:13:05.813Z,-3.98
2022-10-23T00:14:05.860Z,-3.97
2022-10-23T00:15:05.821Z,-3.95
2022-10-23T00:16:06.030Z,-3.97
2022-10-23T00:17:05.839Z,-3.98
2022-10-23T00:18:05.997Z,-3.98
2022-10-23T00:19:05.877Z,-4.01
2022-10-23T00:20:05.932Z,-4.05
2022-10-23T00:21:05.920Z,-4.08
2022-10-23T00:22:05.944Z,-4.13
2022-10-23T00:23:05.960Z,-4.16
2022-10-23T00:24:06.068Z,-4.19
2022-10-23T00:25:05.980Z,-4.21
2022-10-23T00:26:05.966Z,-4.21
2022-10-23T00:27:05.932Z,-4.23
2022-10-23T00:28:05.968Z,-4.23
2022-10-23T00:29:06.086Z,-4.24
2022-10-23T00:30:06.095Z,-4.26
2022-10-23T00:31:05.978Z,-4.24
2022-10-23T00:32:05.994Z,-4.23
2022-10-23T00:33:06.030Z,-4.19
2022-10-23T00:34:05.994Z,-4.22
2022-10-23T00:35:06.026Z,-4.21
2022-10-23T00:36:06.094Z,-4.20
2022-10-23T00:37:06.051Z,-4.23
2022-10-23T00:38:10.938Z,-4.22
2022-10-23T00:39:16.082Z,-4.23
2022-10-23T00:40:16.066Z,-4.20
2022-10-23T00:41:16.134Z,-4.21
2022-10-23T00:42:16.066Z,-4.19
2022-10-23T00:43:16.037Z,-4.19
2022-10-23T00:44:16.076Z,-4.19
2022-10-23T00:45:16.512Z,-4.22
2022-10-23T00:46:16.075Z,-4.21
2022-10-23T00:47:16.170Z,-4.23
2022-10-23T00:48:16.069Z,-4.23
2022-10-23T00:49:16.054Z,-4.21
2022-10-23T00:50:16.169Z,-4.21
2022-10-23T00:51:16.034Z,-4.16
2022-10-23T00:52:16.059Z,-4.17
2022-10-23T00:53:16.054Z,-4.15
2022-10-23T00:54:24.721Z,-4.11
2022-10-23T00:55:16.062Z,-4.12
2022-10-23T00:56:16.074Z,-4.15
2022-10-23T00:57:16.099Z,-4.16
2022-10-23T00:58:16.111Z,-4.19
2022-10-23T00:59:16.081Z,-4.23
2022-10-23T01:00:16.588Z,-4.29
2022-10-23T01:01:21.155Z,-4.35
2022-10-23T01:02:21.251Z,-4.43
2022-10-23T01:03:21.197Z,-4.50
2022-10-23T01:04:21.122Z,-4.51
2022-10-23T01:05:21.118Z,-4.52
2022-10-23T01:06:21.133Z,-4.48
2022-10-23T01:07:21.118Z,-4.45
2022-10-23T01:08:21.136Z,-4.44
2022-10-23T01:09:21.634Z,-4.38
2022-10-23T01:10:21.163Z,-4.36
2022-10-23T01:11:21.176Z,-4.35
2022-10-23T01:12:21.215Z,-4.35
2022-10-23T01:13:21.175Z,-4.35
2022-10-23T01:14:21.166Z,-4.31
2022-10-23T01:15:21.182Z,-4.31
2022-10-23T01:16:21.193Z,-4.31
2022-10-23T01:17:21.155Z,-4.27
2022-10-23T01:18:21.181Z,-4.28
2022-10-23T01:19:21.172Z,-4.27
2022-10-23T01:20:21.243Z,-4.25
2022-10-23T01:21:21.179Z,-4.20
2022-10-23T01:22:21.257Z,-4.20
2022-10-23T01:23:21.214Z,-4.19
2022-10-23T01:24:21.252Z,-4.17
2022-10-23T01:25:21.203Z,-4.17
2022-10-23T01:26:21.371Z,-4.14
2022-10-23T01:27:21.211Z,-4.19
2022-10-23T01:28:21.230Z,-4.15
2022-10-23T01:29:21.214Z,-4.14
2022-10-23T01:30:21.231Z,-4.15
2022-10-23T01:31:21.724Z,-4.14
2022-10-23T01:32:21.254Z,-4.17
2022-10-23T01:33:21.231Z,-4.21
2022-10-23T01:34:21.292Z,-4.24
2022-10-23T01:35:21.250Z,-4.22
2022-10-23T01:36:21.312Z,-4.23
2022-10-23T01:37:21.291Z,-4.23
2022-10-23T01:38:21.285Z,-4.20
2022-10-23T01:39:21.286Z,-4.17
2022-10-23T01:40:21.322Z,-4.19
2022-10-23T01:41:21.284Z,-4.21
2022-10-23T01:42:21.364Z,-4.19
2022-10-23T01:43:21.416Z,-4.16
2022-10-23T01:44:26.240Z,-4.21
2022-10-23T01:45:31.215Z,-4.24
2022-10-23T01:46:31.325Z,-4.28
2022-10-23T01:47:31.342Z,-4.36
2022-10-23T01:48:31.351Z,-4.36
2022-10-23T01:49:31.339Z,-4.39
2022-10-23T01:50:31.376Z,-4.41
2022-10-23T01:51:31.350Z,-4.40
2022-10-23T01:52:31.507Z,-4.42
2022-10-23T01:53:31.350Z,-4.44
2022-10-23T01:54:31.395Z,-4.45
2022-10-23T01:55:31.397Z,-4.48
2022-10-23T01:56:31.380Z,-4.44
2022-10-23T01:57:31.360Z,-4.46
2022-10-23T01:58:31.399Z,-4.50
2022-10-23T01:59:31.349Z,-4.52
2022-10-23T02:00:31.397Z,-4.55
2022-10-23T02:01:31.462Z,-4.54
2022-10-23T02:02:31.422Z,-4.54
2022-10-23T02:03:31.386Z,-4.54
2022-10-23T02:04:31.380Z,-4.52
2022-10-23T02:05:31.343Z,-4.51
2022-10-23T02:06:31.369Z,-4.49
2022-10-23T02:07:31.366Z,-4.44
2022-10-23T02:08:31.375Z,-4.40
2022-10-23T02:09:31.359Z,-4.38
2022-10-23T02:10:31.396Z,-4.36
2022-10-23T02:11:31.366Z,-4.36
2022-10-23T02:12:31.397Z,-4.31
2022-10-23T02:13:31.374Z,-4.27
2022-10-23T02:14:35.302Z,-4.24
2022-10-23T02:15:35.410Z,-4.20
2022-10-23T02:16:35.376Z,-4.22
2022-10-23T02:17:35.396Z,-4.26
2022-10-23T02:18:35.367Z,-4.25
2022-10-23T02:19:40.307Z,-4.25
2022-10-23T02:20:40.529Z,-4.22
2022-10-23T02:23:34.342Z,-4.24
2022-10-23T02:24:34.441Z,-4.23
2022-10-23T02:25:34.456Z,-4.24
2022-10-23T02:26:38.390Z,-4.21
2022-10-23T02:27:38.466Z,-4.23
2022-10-23T02:28:38.461Z,-4.30
2022-10-23T02:29:38.495Z,-4.34
2022-10-23T02:30:38.506Z,-4.34
2022-10-23T02:31:38.613Z,-4.32
2022-10-23T02:32:38.520Z,-4.36
2022-10-23T02:33:43.349Z,-4.36
2022-10-23T02:34:38.553Z,-4.41
2022-10-23T02:35:38.576Z,-4.38
2022-10-23T02:36:38.560Z,-4.38
2022-10-23T02:37:38.635Z,-4.43
2022-10-23T02:38:38.564Z,-4.43
2022-10-23T02:39:38.582Z,-4.42
2022-10-23T02:40:38.564Z,-4.41
2022-10-23T02:41:38.573Z,-4.42
2022-10-23T02:42:38.554Z,-4.38
2022-10-23T02:43:38.604Z,-4.32
2022-10-23T02:44:38.562Z,-4.29
2022-10-23T02:45:38.733Z,-4.24
2022-10-23T02:46:38.571Z,-4.25
2022-10-23T02:47:38.606Z,-4.25
2022-10-23T02:48:38.555Z,-4.27
2022-10-23T02:49:38.615Z,-4.28
2022-10-23T02:50:38.573Z,-4.29
2022-10-23T02:51:38.586Z,-4.30
2022-10-23T02:52:38.574Z,-4.34
2022-10-23T02:53:38.586Z,-4.37
2022-10-23T02:54:38.575Z,-4.40
2022-10-23T02:55:38.794Z,-4.44
2022-10-23T02:56:38.742Z,-4.50
2022-10-23T02:57:38.577Z,-4.53
2022-10-23T02:58:38.554Z,-4.58
2022-10-23T02:59:38.583Z,-4.59
2022-10-23T03:00:38.561Z,-4.60
2022-10-23T03:01:38.855Z,-4.63
2022-10-23T03:02:38.567Z,-4.67
2022-10-23T03:03:38.592Z,-4.70
2022-10-23T03:04:38.582Z,-4.74
2022-10-23T03:05:44.478Z,-4.82
2022-10-23T03:06:44.622Z,-4.87
2022-10-23T03:07:44.795Z,-4.89
2022-10-23T03:08:44.579Z,-4.93
2022-10-23T03:09:44.567Z,-4.93
2022-10-23T03:10:44.631Z,-4.95
2022-10-23T03:11:44.580Z,-4.89
2022-10-23T03:12:44.890Z,-4.85
2022-10-23T03:13:44.586Z,-4.79
2022-10-23T03:14:44.607Z,-4.75
2022-10-23T03:15:44.641Z,-4.65
2022-10-23T03:16:44.614Z,-4.54
2022-10-23T03:17:44.608Z,-4.48
2022-10-23T03:18:44.657Z,-4.31
2022-10-23T03:19:44.612Z,-4.20
2022-10-23T03:20:44.629Z,-4.14
2022-10-23T03:21:44.665Z,-4.11
2022-10-23T03:22:45.230Z,-4.09
2022-10-23T03:23:44.642Z,-4.07
2022-10-23T03:24:44.658Z,-4.06
2022-10-23T03:25:44.652Z,-3.95
2022-10-23T03:26:44.804Z,-3.93
2022-10-23T03:27:44.669Z,-3.91
2022-10-23T03:28:44.694Z,-3.87
2022-10-23T03:29:44.655Z,-3.87
2022-10-23T03:30:49.604Z,-3.87
2022-10-23T03:31:54.545Z,-3.83
2022-10-23T03:32:54.675Z,-3.82
2022-10-23T03:33:54.705Z,-3.81
2022-10-23T03:34:54.712Z,-3.81
2022-10-23T03:35:54.840Z,-3.79
2022-10-23T03:36:54.738Z,-3.79
2022-10-23T03:37:54.707Z,-3.79
2022-10-23T03:38:54.713Z,-3.78
2022-10-23T03:39:54.692Z,-3.77
2022-10-23T03:40:54.723Z,-3.78
2022-10-23T03:41:54.853Z,-3.76
2022-10-23T03:42:54.736Z,-3.75
2022-10-23T03:43:54.755Z,-3.76
2022-10-23T03:44:54.738Z,-3.75
2022-10-23T03:45:54.715Z,-3.74
2022-10-23T03:46:54.739Z,-3.74
2022-10-23T03:47:54.874Z,-3.75
2022-10-23T03:48:54.873Z,-3.76
2022-10-23T03:49:54.767Z,-3.76
2022-10-23T03:50:54.758Z,-3.77
2022-10-23T03:51:54.766Z,-3.76
2022-10-23T03:52:54.777Z,-3.76
2022-10-23T03:53:54.768Z,-3.72
2022-10-23T03:54:54.817Z,-3.74
2022-10-23T03:55:55.283Z,-3.75
2022-10-23T03:56:57.393Z,-3.74
2022-10-23T03:57:54.786Z,-3.75
2022-10-23T03:58:54.855Z,-3.75
2022-10-23T03:59:54.797Z,-3.76
2022-10-23T04:00:54.837Z,-3.76
2022-10-23T04:01:54.978Z,-3.78
2022-10-23T04:02:54.819Z,-3.77
2022-10-23T04:03:54.805Z,-3.79
2022-10-23T04:04:54.834Z,-3.78
2022-10-23T04:05:54.834Z,-3.77
2022-10-23T04:06:54.939Z,-3.80
2022-10-23T04:07:54.834Z,-3.79
2022-10-23T04:08:54.989Z,-3.84
2022-10-23T04:09:54.840Z,-3.85
2022-10-23T04:10:54.882Z,-3.85
2022-10-23T04:11:54.846Z,-3.84
2022-10-23T04:12:54.963Z,-3.87
2022-10-23T04:13:54.844Z,-3.92
2022-10-23T04:14:54.861Z,-3.93
2022-10-23T04:15:54.845Z,-3.95
2022-10-23T04:16:54.865Z,-3.97
2022-10-23T04:17:54.846Z,-3.97
2022-10-23T04:18:55.055Z,-3.99
2022-10-23T04:19:54.840Z,-4.02
2022-10-23T04:20:54.873Z,-4.02
2022-10-23T04:21:54.842Z,-4.06
2022-10-23T04:22:54.900Z,-4.02
2022-10-23T04:23:54.888Z,-4.06
2022-10-23T04:24:54.998Z,-4.05
2022-10-23T04:25:54.857Z,-4.04
2022-10-23T04:26:54.880Z,-4.02
2022-10-23T04:27:54.883Z,-4.04
2022-10-23T04:28:54.875Z,-4.01
2022-10-23T04:29:56.905Z,-4.00
2022-10-23T04:30:54.980Z,-3.96
2022-10-23T04:31:54.844Z,-3.94
2022-10-23T04:32:54.866Z,-3.92
2022-10-23T04:33:54.941Z,-3.87
2022-10-23T04:34:54.873Z,-3.84
2022-10-23T04:35:54.856Z,-3.83
2022-10-23T04:36:54.956Z,-3.83
2022-10-23T04:37:54.867Z,-3.80
2022-10-23T04:38:54.874Z,-3.79
2022-10-23T04:39:54.863Z,-3.76
2022-10-23T04:40:54.929Z,-3.72
2022-10-23T04:41:54.850Z,-3.72
2022-10-23T04:43:00.921Z,-3.69
2022-10-23T04:44:00.901Z,-3.70
2022-10-23T04:45:00.866Z,-3.71
2022-10-23T04:46:04.758Z,-3.71
2022-10-23T04:47:04.874Z,-3.72
2022-10-23T04:48:04.994Z,-3.70
2022-10-23T04:49:04.878Z,-3.71
2022-10-23T04:50:04.895Z,-3.71
2022-10-23T04:51:10.960Z,-3.70
2022-10-23T04:52:10.899Z,-3.71
2022-10-23T04:53:10.901Z,-3.72
2022-10-23T04:54:10.905Z,-3.72
2022-10-23T04:55:10.894Z,-3.75
2022-10-23T04:56:10.937Z,-3.76
2022-10-23T04:57:10.922Z,-3.77
2022-10-23T04:58:10.939Z,-3.78
2022-10-23T04:59:10.943Z,-3.79
2022-10-23T05:00:15.849Z,-3.81
2022-10-23T05:01:16.014Z,-3.81
2022-10-23T05:02:15.884Z,-3.83
2022-10-23T05:03:15.993Z,-3.84
2022-10-23T05:04:15.866Z,-3.84
2022-10-23T05:05:15.887Z,-3.83
2022-10-23T05:06:15.843Z,-3.85
2022-10-23T05:07:15.915Z,-3.84
2022-10-23T05:08:18.043Z,-3.84
2022-10-23T05:09:15.900Z,-3.84
2022-10-23T05:10:15.860Z,-3.84
2022-10-23T05:11:15.871Z,-3.82
2022-10-23T05:12:15.867Z,-3.79
2022-10-23T05:13:15.877Z,-3.80
2022-10-23T05:14:20.529Z,-3.79
2022-10-23T05:15:15.905Z,-3.80
2022-10-23T05:16:15.865Z,-3.81
2022-10-23T05:17:15.882Z,-3.78
2022-10-23T05:18:15.849Z,-3.78
2022-10-23T05:19:15.882Z,-3.78
2022-10-23T05:20:15.861Z,-3.78
2022-10-23T05:21:15.877Z,-3.78
2022-10-23T05:22:16.417Z,-3.79
2022-10-23T05:23:15.875Z,-3.78
2022-10-23T05:24:15.839Z,-3.80
2022-10-23T05:25:15.853Z,-3.81
2022-10-23T05:26:15.847Z,-3.81
2022-10-23T05:27:15.876Z,-3.81
2022-10-23T05:28:15.865Z,-3.80
2022-10-23T05:29:15.862Z,-3.79
2022-10-23T05:30:15.838Z,-3.78
2022-10-23T05:31:15.857Z,-3.77
2022-10-23T05:32:15.917Z,-3.78
2022-10-23T05:33:15.991Z,-3.78
2022-10-23T05:34:15.857Z,-3.76
2022-10-23T05:35:15.851Z,-3.77
2022-10-23T05:36:15.859Z,-3.76
2022-10-23T05:37:15.859Z,-3.72
2022-10-23T05:38:15.830Z,-3.72
2022-10-23T05:39:15.959Z,-3.69
2022-10-23T05:40:15.844Z,-3.68
2022-10-23T05:41:15.852Z,-3.68
2022-10-23T05:42:15.839Z,-3.66
2022-10-23T05:43:15.857Z,-3.64
2022-10-23T05:44:15.896Z,-3.61
2022-10-23T05:45:15.877Z,-3.61
2022-10-23T05:46:15.842Z,-3.60
2022-10-23T05:47:15.870Z,-3.56
2022-10-23T05:48:22.857Z,-3.55
2022-10-23T05:49:15.863Z,-3.54
2022-10-23T05:50:15.864Z,-3.54
2022-10-23T05:51:15.904Z,-3.54
2022-10-23T05:52:15.836Z,-3.55
2022-10-23T05:53:15.871Z,-3.60
2022-10-23T05:54:15.842Z,-3.61
2022-10-23T05:55:15.975Z,-3.63
2022-10-23T05:56:15.868Z,-3.64
2022-10-23T05:58:15.874Z,-3.67
2022-10-23T05:59:19.075Z,-3.65
2022-10-23T06:00:15.851Z,-3.64
2022-10-23T06:01:15.956Z,-3.66
2022-10-23T06:02:15.912Z,-3.68
2022-10-23T06:03:15.900Z,-3.72
2022-10-23T06:04:15.871Z,-3.75
2022-10-23T06:05:15.885Z,-3.79
2022-10-23T06:06:16.004Z,-3.81
2022-10-23T06:07:15.874Z,-3.82
2022-10-23T06:08:15.855Z,-3.81
2022-10-23T06:09:16.001Z,-3.79
2022-10-23T06:10:15.857Z,-3.75
2022-10-23T06:11:15.882Z,-3.71
2022-10-23T06:12:15.868Z,-3.68
2022-10-23T06:13:15.912Z,-3.61
2022-10-23T06:14:15.884Z,-3.52
2022-10-23T06:15:15.997Z,-3.43
2022-10-23T06:16:15.894Z,-3.36
2022-10-23T06:17:15.938Z,-3.33
2022-10-23T06:18:15.926Z,-3.26
2022-10-23T06:19:15.962Z,-3.24
2022-10-23T06:20:15.930Z,-3.21
2022-10-23T06:21:15.988Z,-3.19
2022-10-23T06:22:16.027Z,-3.16
2022-10-23T06:23:16.003Z,-3.19
2022-10-23T06:24:15.981Z,-3.17
2022-10-23T06:25:16.013Z,-3.16
2022-10-23T06:26:16.024Z,-3.15
2022-10-23T06:27:16.131Z,-3.12
2022-10-23T06:28:18.377Z,-3.13
2022-10-23T06:29:16.043Z,-3.16
2022-10-23T06:30:16.044Z,-3.17
2022-10-23T06:31:16.214Z,-3.18
2022-10-23T06:32:16.045Z,-3.18
2022-10-23T06:33:16.075Z,-3.17
2022-10-23T06:34:16.092Z,-3.15
2022-10-23T06:35:16.087Z,-3.16
2022-10-23T06:36:16.066Z,-3.17
2022-10-23T06:37:16.105Z,-3.21
2022-10-23T06:38:16.131Z,-3.23
2022-10-23T06:39:16.128Z,-3.30
2022-10-23T06:40:16.116Z,-3.31
2022-10-23T06:41:16.151Z,-3.30
2022-10-23T06:42:16.155Z,-3.28
2022-10-23T06:43:16.176Z,-3.27
2022-10-23T06:44:16.180Z,-3.24
2022-10-23T06:45:16.217Z,-3.22
2022-10-23T06:48:10.325Z,-3.19
2022-10-23T06:49:10.303Z,-3.11
2022-10-23T06:50:13.090Z,-3.12
2022-10-23T06:51:10.306Z,-3.13
2022-10-23T06:52:18.353Z,-3.20
2022-10-23T06:53:16.337Z,-3.23
2022-10-23T06:54:16.337Z,-3.30
2022-10-23T06:55:16.316Z,-3.32
2022-10-23T06:56:22.230Z,-3.36
2022-10-23T06:57:22.817Z,-3.38
2022-10-23T06:58:22.474Z,-3.36
2022-10-23T06:59:22.370Z,-3.32
2022-10-23T07:00:22.361Z,-3.35
2022-10-23T07:01:22.579Z,-3.34
2022-10-23T07:02:22.380Z,-3.34
2022-10-23T07:03:22.410Z,-3.37
2022-10-23T07:04:22.420Z,-3.39
2022-10-23T07:05:22.423Z,-3.41
2022-10-23T07:06:22.411Z,-3.40
2022-10-23T07:07:22.455Z,-3.42
2022-10-23T07:08:22.449Z,-3.40
2022-10-23T07:09:22.603Z,-3.40
2022-10-23T07:10:22.469Z,-3.40
2022-10-23T07:11:22.506Z,-3.42
2022-10-23T07:12:22.504Z,-3.46
2022-10-23T07:13:22.525Z,-3.47
2022-10-23T07:14:22.546Z,-3.47
2022-10-23T07:15:22.562Z,-3.45
2022-10-23T07:16:22.565Z,-3.46
2022-10-23T07:17:22.585Z,-3.45
2022-10-23T07:18:22.662Z,-3.41
2022-10-23T07:19:22.901Z,-3.38
2022-10-23T07:20:22.640Z,-3.33
2022-10-23T07:21:22.629Z,-3.28
2022-10-23T07:22:22.644Z,-3.28
2022-10-23T07:23:22.689Z,-3.26
2022-10-23T07:24:22.676Z,-3.23
2022-10-23T07:25:22.830Z,-3.21
2022-10-23T07:26:22.721Z,-3.18
2022-10-23T07:27:22.739Z,-3.17
2022-10-23T07:28:22.761Z,-3.11
2022-10-23T07:29:22.754Z,-3.09
2022-10-23T07:30:22.915Z,-3.07
2022-10-23T07:31:25.670Z,-3.06
2022-10-23T07:32:22.802Z,-3.03
2022-10-23T07:33:22.829Z,-2.97
2022-10-23T07:34:22.853Z,-2.95
2022-10-23T07:35:22.868Z,-2.93
2022-10-23T07:36:22.963Z,-2.92
2022-10-23T07:37:22.889Z,-2.91
2022-10-23T07:38:22.884Z,-2.90
2022-10-23T07:39:22.898Z,-2.89
2022-10-23T07:40:22.882Z,-2.87
2022-10-23T07:41:22.927Z,-2.87
2022-10-23T07:42:22.942Z,-2.87
2022-10-23T07:43:28.069Z,-2.84
2022-10-23T07:44:31.863Z,-2.82
2022-10-23T07:45:31.955Z,-2.80
2022-10-23T07:46:31.958Z,-2.78
2022-10-23T07:47:32.124Z,-2.76
2022-10-23T07:48:31.971Z,-2.74
2022-10-23T07:49:31.998Z,-2.71
2022-10-23T07:50:31.996Z,-2.69
2022-10-23T07:51:32.050Z,-2.68
2022-10-23T07:52:35.084Z,-2.68
2022-10-23T07:53:32.042Z,-2.67
2022-10-23T07:54:32.013Z,-2.67
2022-10-23T07:55:32.046Z,-2.68
2022-10-23T07:56:32.044Z,-2.69
2022-10-23T07:57:32.066Z,-2.68
2022-10-23T07:58:32.043Z,-2.67
2022-10-23T07:59:38.033Z,-2.69
2022-10-23T08:00:41.996Z,-2.69
2022-10-23T08:01:42.237Z,-2.68
2022-10-23T08:02:42.318Z,-2.67
2022-10-23T08:03:42.155Z,-2.65
2022-10-23T08:04:42.264Z,-2.68
2022-10-23T08:05:42.162Z,-2.67
2022-10-23T08:06:42.172Z,-2.67
2022-10-23T08:07:42.186Z,-2.67
2022-10-23T08:08:42.215Z,-2.67
2022-10-23T08:09:42.215Z,-2.67
2022-10-23T08:10:42.321Z,-2.65
2022-10-23T08:11:42.370Z,-2.67
2022-10-23T08:12:42.686Z,-2.67
2022-10-23T08:13:42.275Z,-2.65
2022-10-23T08:14:42.281Z,-2.67
2022-10-23T08:15:42.343Z,-2.68
2022-10-23T08:16:42.311Z,-2.67
2022-10-23T08:17:42.578Z,-2.68
2022-10-23T08:18:42.352Z,-2.67
2022-10-23T08:19:42.390Z,-2.66
2022-10-23T08:20:42.456Z,-2.64
2022-10-23T08:21:42.523Z,-2.64
2022-10-23T08:22:42.419Z,-2.64
2022-10-23T08:23:42.440Z,-2.63
2022-10-23T08:24:42.429Z,-2.61
2022-10-23T08:25:42.458Z,-2.62
2022-10-23T08:26:42.546Z,-2.59
2022-10-23T08:27:42.819Z,-2.58
2022-10-23T08:28:42.468Z,-2.57
2022-10-23T08:29:42.507Z,-2.54
2022-10-23T08:30:42.504Z,-2.52
2022-10-23T08:31:42.676Z,-2.52
2022-10-23T08:32:42.638Z,-2.49
2022-10-23T08:33:45.808Z,-2.47
2022-10-23T08:34:42.584Z,-2.47
2022-10-23T08:35:42.629Z,-2.46
2022-10-23T08:36:42.602Z,-2.46
2022-10-23T08:37:42.789Z,-2.43
2022-10-23T08:38:42.648Z,-2.41
2022-10-23T08:39:42.673Z,-2.41
2022-10-23T08:40:42.666Z,-2.38
2022-10-23T08:41:42.866Z,-2.41
2022-10-23T08:42:42.983Z,-2.39
2022-10-23T08:43:42.799Z,-2.37
2022-10-23T08:44:42.750Z,-2.34
2022-10-23T08:45:42.774Z,-2.34
2022-10-23T08:46:42.788Z,-2.33
2022-10-23T08:47:42.828Z,-2.31
2022-10-23T08:48:42.923Z,-2.28
2022-10-23T08:49:42.864Z,-2.29
2022-10-23T08:50:42.869Z,-2.24
2022-10-23T08:51:43.033Z,-2.22
2022-10-23T08:52:43.199Z,-2.21
2022-10-23T08:53:43.065Z,-2.21
2022-10-23T08:54:42.974Z,-2.18
2022-10-23T08:55:43.018Z,-2.17
2022-10-23T08:56:43.031Z,-2.17
2022-10-23T08:57:43.673Z,-2.15
2022-10-23T08:58:43.070Z,-2.12
2022-10-23T08:59:43.079Z,-2.09
2022-10-23T09:00:43.177Z,-2.08
2022-10-23T09:01:43.318Z,-2.06
2022-10-23T09:02:43.424Z,-2.06
2022-10-23T09:03:43.163Z,-2.04
2022-10-23T09:04:43.304Z,-2.03
2022-10-23T09:05:43.203Z,-2.02
2022-10-23T09:06:43.189Z,-2.01
2022-10-23T16:20:10.916Z,-0.42
2022-10-23T16:21:10.145Z,-0.42
2022-10-23T16:22:10.191Z,-0.44
2022-10-23T16:23:10.218Z,-0.43
2022-10-23T16:24:10.246Z,-0.43
2022-10-23T16:25:10.335Z,-0.44
2022-10-23T16:26:10.347Z,-0.45
2022-10-23T16:27:10.371Z,-0.45
2022-10-23T16:28:10.410Z,-0.47
2022-10-23T16:29:10.471Z,-0.47
2022-10-23T16:30:10.512Z,-0.47
2022-10-23T16:31:10.733Z,-0.47
2022-10-23T16:32:10.572Z,-0.50
2022-10-23T16:33:10.640Z,-0.47
2022-10-23T16:34:10.684Z,-0.50
2022-10-23T16:35:13.018Z,-0.49
2022-10-23T16:36:11.468Z,-0.50
2022-10-23T16:37:16.720Z,-0.51
2022-10-23T16:38:16.839Z,-0.52
2022-10-23T16:39:16.853Z,-0.53
2022-10-23T16:40:21.804Z,-0.52
2022-10-23T16:41:22.131Z,-0.51
2022-10-23T16:42:22.004Z,-0.53
2022-10-23T16:43:22.042Z,-0.53
2022-10-23T16:44:22.067Z,-0.54
2022-10-23T16:45:22.114Z,-0.55
2022-10-23T16:46:22.278Z,-0.55
2022-10-23T16:47:22.195Z,-0.57
2022-10-23T16:48:22.235Z,-0.57
2022-10-23T16:49:22.289Z,-0.58
2022-10-23T16:50:22.316Z,-0.58
2022-10-23T16:51:22.500Z,-0.59
2022-10-23T16:52:22.391Z,-0.59
2022-10-23T16:53:22.460Z,-0.58
2022-10-23T16:54:22.483Z,-0.59
2022-10-23T16:55:26.432Z,-0.58
2022-10-23T16:56:26.709Z,-0.61
2022-10-23T16:57:26.635Z,-0.61
2022-10-23T16:58:26.690Z,-0.61
2022-10-23T16:59:26.725Z,-0.62
2022-10-23T17:00:26.758Z,-0.64
2022-10-23T17:01:26.992Z,-0.65
2022-10-23T17:02:26.975Z,-0.66
2022-10-23T17:03:26.867Z,-0.67
2022-10-23T17:04:30.846Z,-0.68
2022-10-23T17:05:30.992Z,-0.70
2022-10-23T17:06:31.048Z,-0.70
2022-10-23T17:07:31.094Z,-0.70
2022-10-23T17:08:31.123Z,-0.73
2022-10-23T17:09:31.198Z,-0.73
2022-10-23T17:10:31.222Z,-0.77
2022-10-23T17:11:31.416Z,-0.76
2022-10-23T17:12:31.316Z,-0.80
2022-10-23T17:13:31.376Z,-0.82
2022-10-23T17:14:31.373Z,-0.84
2022-10-23T17:15:31.496Z,-0.84
2022-10-23T17:16:31.511Z,-0.86
2022-10-23T17:17:31.529Z,-0.86
2022-10-23T17:18:31.576Z,-0.87
2022-10-23T17:19:45.145Z,-0.89
2022-10-23T17:20:31.612Z,-0.89
2022-10-23T17:21:31.852Z,-0.91
2022-10-23T17:22:31.697Z,-0.93
2022-10-23T17:23:31.784Z,-0.91
2022-10-23T17:24:31.763Z,-0.93
2022-10-23T17:25:31.823Z,-0.95
2022-10-23T17:26:31.844Z,-0.96
2022-10-23T17:27:31.955Z,-0.97
2022-10-23T17:28:31.917Z,-0.96
2022-10-23T17:29:31.990Z,-0.98
2022-10-23T17:30:32.035Z,-0.99
2022-10-23T17:31:32.195Z,-0.98
2022-10-23T17:32:32.114Z,-0.97
2022-10-23T17:33:40.924Z,-0.98
2022-10-23T17:34:32.186Z,-1.01
2022-10-23T17:35:32.236Z,-1.00
2022-10-23T17:36:32.295Z,-1.01
2022-10-23T17:37:32.308Z,-1.02
2022-10-23T17:38:32.325Z,-1.03
2022-10-23T17:40:37.339Z,-1.03
2022-10-23T17:41:37.509Z,-1.04
2022-10-23T17:42:37.472Z,-1.05
2022-10-23T17:43:37.515Z,-1.06
2022-10-23T17:44:37.545Z,-1.08
2022-10-23T17:45:37.586Z,-1.09
2022-10-23T17:46:37.617Z,-1.10
2022-10-23T17:47:42.581Z,-1.10
2022-10-23T17:48:42.735Z,-1.10
2022-10-23T17:49:45.397Z,-1.12
2022-10-23T17:50:42.774Z,-1.12
2022-10-23T17:51:42.841Z,-1.11
2022-10-23T17:52:43.294Z,-1.13
2022-10-23T17:53:42.871Z,-1.14
2022-10-23T17:54:42.921Z,-1.14
2022-10-23T17:55:42.953Z,-1.13
2022-10-23T17:56:43.056Z,-1.13
2022-10-23T17:57:43.251Z,-1.15
2022-10-23T17:58:43.087Z,-1.15
2022-10-23T17:59:43.113Z,-1.13
2022-10-23T18:00:43.182Z,-1.15
2022-10-23T18:01:43.354Z,-1.14
2022-10-23T18:02:48.164Z,-1.13
2022-10-23T18:03:48.311Z,-1.13
2022-10-23T18:04:48.330Z,-1.13
2022-10-23T18:05:48.393Z,-1.12
2022-10-23T18:06:48.455Z,-1.12
2022-10-23T18:07:48.477Z,-1.10
2022-10-23T18:08:48.516Z,-1.11
2022-10-23T18:09:48.559Z,-1.10
2022-10-23T18:10:48.601Z,-1.11
2022-10-23T18:11:48.816Z,-1.10
2022-10-23T18:12:48.668Z,-1.11
2022-10-23T18:13:48.802Z,-1.08
2022-10-23T18:14:48.759Z,-1.09
2022-10-23T18:15:48.819Z,-1.09
2022-10-23T18:16:49.007Z,-1.10
2022-10-23T18:17:48.903Z,-1.09
2022-10-23T18:18:48.933Z,-1.09
2022-10-23T18:20:53.897Z,-1.06
2022-10-23T18:21:54.557Z,-1.09
2022-10-23T18:22:58.026Z,-1.09
2022-10-23T18:23:58.185Z,-1.06
2022-10-23T18:24:58.208Z,-1.05
2022-10-23T18:25:58.266Z,-1.05
2022-10-23T18:26:58.396Z,-1.03
2022-10-23T18:28:01.728Z,-1.03
2022-10-23T18:28:58.349Z,-1.03
2022-10-23T18:29:58.419Z,-1.01
2022-10-23T18:30:58.434Z,-1.01
2022-10-23T18:31:58.530Z,-0.98
2022-10-23T18:32:58.490Z,-1.00
2022-10-23T18:33:58.587Z,-0.96
2022-10-23T18:34:58.573Z,-0.96
2022-10-23T18:35:58.613Z,-0.93
2022-10-23T18:36:58.647Z,-0.93
2022-10-23T18:37:58.708Z,-0.89
2022-10-23T18:38:58.709Z,-0.87
2022-10-23T18:39:58.770Z,-0.87
2022-10-23T18:40:58.927Z,-0.86
2022-10-23T18:42:03.780Z,-0.85
2022-10-23T18:43:03.880Z,-0.84
2022-10-23T18:44:03.916Z,-0.85
2022-10-23T18:45:08.951Z,-0.84
2022-10-23T18:46:09.166Z,-0.86
2022-10-23T18:47:09.106Z,-0.85
2022-10-23T18:48:09.136Z,-0.85
2022-10-23T18:49:09.147Z,-0.85
2022-10-23T18:50:09.207Z,-0.84
2022-10-23T18:51:12.203Z,-0.84
2022-10-23T18:52:09.436Z,-0.85
2022-10-23T18:53:09.302Z,-0.84
2022-10-23T18:54:09.372Z,-0.84
2022-10-23T18:57:03.411Z,-0.85
2022-10-23T18:58:03.549Z,-0.84
2022-10-23T18:59:03.531Z,-0.83
2022-10-23T19:00:03.588Z,-0.82
2022-10-23T19:01:03.781Z,-0.85
2022-10-23T19:02:03.936Z,-0.83
2022-10-23T19:03:03.706Z,-0.83
2022-10-23T19:04:03.755Z,-0.87
2022-10-23T19:05:03.751Z,-0.84
2022-10-23T19:06:03.839Z,-0.86
2022-10-23T19:07:03.981Z,-0.84
2022-10-23T19:08:03.889Z,-0.84
2022-10-23T19:09:03.921Z,-0.84
2022-10-23T19:10:03.990Z,-0.81
2022-10-23T19:11:03.984Z,-0.81
2022-10-23T19:12:04.301Z,-0.81
2022-10-23T19:13:04.092Z,-0.80
2022-10-23T19:14:04.102Z,-0.81
2022-10-23T19:15:04.125Z,-0.80
2022-10-23T19:16:04.180Z,-0.81
2022-10-23T19:17:04.187Z,-0.77
2022-10-23T19:18:04.263Z,-0.77
2022-10-23T19:19:04.367Z,-0.79
2022-10-23T19:20:08.215Z,-0.77
2022-10-23T19:21:08.327Z,-0.74
2022-10-23T19:22:08.337Z,-0.74
2022-10-23T19:23:09.931Z,-0.76
2022-10-23T19:24:08.413Z,-0.75
2022-10-23T19:25:08.484Z,-0.75
2022-10-23T19:26:14.392Z,-0.73
2022-10-23T19:27:14.523Z,-0.75
2022-10-23T19:28:14.540Z,-0.75
2022-10-23T19:29:14.615Z,-0.74
2022-10-23T19:30:16.295Z,-0.74
2022-10-23T19:31:14.687Z,-0.72
2022-10-23T19:32:14.702Z,-0.74
2022-10-23T19:33:14.775Z,-0.73
2022-10-23T19:34:14.803Z,-0.73
2022-10-23T19:35:20.801Z,-0.70
2022-10-23T19:36:23.521Z,-0.69
2022-10-23T19:37:20.913Z,-0.70
2022-10-23T19:38:21.018Z,-0.68
2022-10-23T19:39:21.023Z,-0.67
2022-10-23T19:40:21.115Z,-0.66
2022-10-23T19:41:21.096Z,-0.66
2022-10-23T19:42:21.170Z,-0.66
2022-10-23T19:43:21.232Z,-0.64
2022-10-23T19:44:21.260Z,-0.59
2022-10-23T19:45:21.372Z,-0.59
2022-10-23T19:46:21.324Z,-0.57
2022-10-23T19:47:21.344Z,-0.54
2022-10-23T19:48:21.407Z,-0.53
2022-10-23T19:49:21.424Z,-0.51
2022-10-23T19:50:21.519Z,-0.50
2022-10-23T19:51:21.501Z,-0.52
2022-10-23T19:52:21.568Z,-0.53
2022-10-23T19:53:21.622Z,-0.50
2022-10-23T19:54:21.684Z,-0.50
2022-10-23T19:55:21.697Z,-0.51
2022-10-23T19:56:21.728Z,-0.49
2022-10-23T19:57:22.648Z,-0.53
2022-10-23T19:58:21.833Z,-0.56
2022-10-23T19:59:21.859Z,-0.58
2022-10-23T20:00:21.930Z,-0.60
2022-10-23T20:01:21.967Z,-0.60
2022-10-23T20:02:22.106Z,-0.65
2022-10-23T20:03:21.965Z,-0.67
2022-10-23T20:04:22.065Z,-0.69
2022-10-23T20:05:22.050Z,-0.71
2022-10-23T20:06:27.008Z,-0.74
2022-10-23T20:07:27.144Z,-0.74
2022-10-23T20:08:31.237Z,-0.76
2022-10-23T20:09:27.249Z,-0.76
2022-10-23T20:10:27.255Z,-0.80
2022-10-23T20:11:27.464Z,-0.81
2022-10-23T20:12:27.327Z,-0.84
2022-10-23T20:13:27.430Z,-0.84
2022-10-23T20:14:27.438Z,-0.88
2022-10-23T20:15:27.480Z,-0.89
2022-10-23T20:16:27.498Z,-0.91
2022-10-23T20:17:27.547Z,-0.91